createdAt,value
2022-10-28T00:00:07.384Z,13.44
2022-10-28T00:01:11.774Z,13.45
2022-10-28T00:02:15.981Z,13.43
2022-10-28T00:03:18.566Z,13.43
2022-10-28T00:04:21.870Z,13.43
2022-10-28T00:05:23.757Z,13.42
2022-10-28T00:06:29.119Z,13.42
2022-10-28T00:07:30.885Z,13.41
2022-10-28T00:08:34.406Z,13.41
2022-10-28T00:09:36.182Z,13.40
2022-10-28T00:10:39.187Z,13.42
2022-10-28T00:11:41.186Z,13.39
2022-10-28T00:12:44.105Z,13.40
2022-10-28T00:13:46.475Z,13.39
2022-10-28T00:14:49.332Z,13.39
2022-10-28T00:15:51.107Z,13.38
2022-10-28T00:16:53.901Z,13.38
2022-10-28T00:17:57.058Z,13.39
2022-10-28T00:19:02.089Z,13.37
2022-10-28T00:20:04.500Z,13.36
2022-10-28T00:21:09.991Z,13.35
2022-10-28T00:22:11.775Z,13.35
2022-10-28T00:23:14.539Z,13.35
2022-10-28T00:24:16.340Z,13.34
2022-10-28T00:25:24.499Z,13.35
2022-10-28T00:26:28.592Z,13.33
2022-10-28T00:27:33.212Z,13.34
2022-10-28T00:28:35.272Z,13.33
2022-10-28T00:29:38.055Z,13.32
2022-10-28T00:30:39.952Z,13.32
2022-10-28T00:31:43.146Z,13.32
2022-10-28T00:32:45.007Z,13.31
2022-10-28T00:33:50.097Z,13.30
2022-10-28T00:34:51.921Z,13.30
2022-10-28T00:35:54.706Z,13.30
2022-10-28T00:36:56.538Z,13.29
2022-10-28T00:37:59.362Z,13.29
2022-10-28T00:39:02.375Z,13.28
2022-10-28T00:40:06.113Z,13.28
2022-10-28T00:41:08.634Z,13.27
2022-10-28T00:42:11.840Z,13.26
2022-10-28T00:43:13.655Z,13.25
2022-10-28T00:44:54.310Z,13.25
2022-10-28T00:45:56.422Z,13.24
2022-10-28T00:46:59.533Z,13.22
2022-10-28T00:48:04.753Z,13.22
2022-10-28T00:49:23.090Z,13.22
2022-10-28T00:50:38.889Z,13.22
2022-10-28T00:51:42.939Z,13.23
2022-10-28T00:52:47.096Z,13.23
2022-10-28T00:53:52.073Z,13.22
2022-10-28T00:54:55.924Z,13.21
2022-10-28T00:56:02.169Z,13.21
2022-10-28T00:57:10.681Z,13.21
2022-10-28T00:58:13.694Z,13.21
2022-10-28T00:59:22.434Z,13.20
2022-10-28T01:00:26.527Z,13.19
2022-10-28T01:01:28.703Z,13.19
2022-10-28T01:02:33.960Z,13.18
2022-10-28T01:03:37.330Z,13.17
2022-10-28T01:04:42.571Z,13.17
2022-10-28T01:05:49.311Z,13.16
2022-10-28T01:06:52.850Z,13.17
2022-10-28T01:07:58.754Z,13.15
2022-10-28T01:09:02.195Z,13.15
2022-10-28T01:10:04.389Z,13.14
2022-10-28T01:11:23.809Z,13.14
2022-10-28T01:12:35.410Z,13.13
2022-10-28T01:13:50.079Z,13.13
2022-10-28T01:15:05.825Z,13.12
2022-10-28T01:16:18.612Z,13.12
2022-10-28T01:17:32.824Z,13.10
2022-10-28T01:18:46.572Z,13.11
2022-10-28T01:20:22.799Z,13.10
2022-10-28T01:21:58.202Z,13.08
2022-10-28T01:23:07.536Z,13.09
2022-10-28T01:24:22.759Z,13.08
2022-10-28T01:25:48.270Z,13.07
2022-10-28T01:27:15.194Z,13.07
2022-10-28T01:28:42.616Z,13.05
2022-10-28T01:30:05.934Z,13.05
2022-10-28T01:31:26.648Z,13.05
2022-10-28T01:32:39.826Z,13.04
2022-10-28T01:33:51.207Z,13.05
2022-10-28T01:35:02.117Z,13.05
2022-10-28T01:36:11.506Z,13.04
2022-10-28T01:37:19.549Z,13.05
2022-10-28T01:38:31.637Z,13.03
2022-10-28T01:39:37.949Z,13.05
2022-10-28T01:40:48.221Z,13.04
2022-10-28T01:41:54.129Z,13.04
2022-10-28T01:43:04.321Z,13.05
2022-10-28T01:44:08.990Z,13.05
2022-10-28T01:45:17.057Z,13.05
2022-10-28T01:46:26.110Z,13.05
2022-10-28T01:47:32.994Z,13.04
2022-10-28T01:48:40.110Z,13.04
2022-10-28T01:49:50.277Z,13.04
2022-10-28T01:50:57.855Z,13.02
2022-10-28T01:52:05.223Z,13.02
2022-10-28T01:53:14.014Z,13.01
2022-10-28T01:54:19.173Z,13.00
2022-10-28T01:55:26.624Z,13.00
2022-10-28T01:56:33.137Z,12.99
2022-10-28T01:57:38.954Z,12.99
2022-10-28T01:58:41.562Z,12.98
2022-10-28T01:59:45.786Z,12.98
2022-10-28T02:00:49.298Z,12.97
2022-10-28T02:01:54.498Z,12.96
2022-10-28T02:02:56.827Z,12.96
2022-10-28T02:03:59.957Z,12.95
2022-10-28T02:05:27.023Z,12.94
2022-10-28T02:06:32.770Z,12.93
2022-10-28T02:07:34.922Z,12.93
2022-10-28T02:08:51.431Z,12.93
2022-10-28T02:10:05.825Z,12.92
2022-10-28T02:11:33.436Z,12.91
2022-10-28T02:12:38.632Z,12.91
2022-10-28T02:13:52.223Z,12.89
2022-10-28T02:15:29.481Z,12.89
2022-10-28T02:16:39.348Z,12.89
2022-10-28T02:17:57.905Z,12.88
2022-10-28T02:19:06.100Z,12.87
2022-10-28T02:20:15.772Z,12.86
2022-10-28T02:21:24.972Z,12.86
2022-10-28T02:22:34.613Z,12.85
2022-10-28T02:23:43.780Z,12.84
2022-10-28T02:24:55.559Z,12.84
2022-10-28T02:26:03.343Z,12.83
2022-10-28T02:27:13.234Z,12.82
2022-10-28T02:28:22.959Z,12.82
2022-10-28T02:29:30.978Z,12.80
2022-10-28T02:30:39.904Z,12.80
2022-10-28T02:31:48.064Z,12.79
2022-10-28T02:32:57.116Z,12.80
2022-10-28T02:34:04.505Z,12.79
2022-10-28T02:35:13.091Z,12.77
2022-10-28T02:36:19.392Z,12.77
2022-10-28T02:37:25.185Z,12.76
2022-10-28T02:38:34.106Z,12.76
2022-10-28T02:39:41.046Z,12.75
2022-10-28T02:40:50.113Z,12.76
2022-10-28T02:41:57.010Z,12.75
2022-10-28T02:43:02.769Z,12.75
2022-10-28T02:44:09.177Z,12.75
2022-10-28T02:45:14.668Z,12.75
2022-10-28T02:46:20.161Z,12.74
2022-10-28T02:47:26.291Z,12.75
2022-10-28T02:48:35.523Z,12.74
2022-10-28T02:49:41.595Z,12.73
2022-10-28T02:50:51.353Z,12.72
2022-10-28T02:51:57.985Z,12.72
2022-10-28T02:53:03.974Z,12.72
2022-10-28T02:54:09.143Z,12.72
2022-10-28T02:55:12.151Z,12.70
2022-10-28T02:56:16.967Z,12.69
2022-10-28T02:57:22.858Z,12.69
2022-10-28T02:58:24.878Z,12.69
2022-10-28T02:59:29.377Z,12.68
2022-10-28T03:00:31.252Z,12.67
2022-10-28T03:01:34.100Z,12.67
2022-10-28T03:02:36.088Z,12.67
2022-10-28T03:03:40.728Z,12.67
2022-10-28T03:04:42.617Z,12.67
2022-10-28T03:05:46.019Z,12.66
2022-10-28T03:06:47.907Z,12.66
2022-10-28T03:07:50.953Z,12.65
2022-10-28T03:08:53.769Z,12.64
2022-10-28T03:09:56.662Z,12.64
2022-10-28T03:10:58.501Z,12.63
2022-10-28T03:12:02.327Z,12.64
2022-10-28T03:13:04.249Z,12.64
2022-10-28T03:14:09.602Z,12.64
2022-10-28T03:15:13.885Z,12.63
2022-10-28T03:16:16.635Z,12.60
2022-10-28T03:17:18.431Z,12.61
2022-10-28T03:18:21.236Z,12.60
2022-10-28T03:19:24.953Z,12.60
2022-10-28T03:20:27.680Z,12.59
2022-10-28T03:21:29.477Z,12.57
2022-10-28T03:22:32.348Z,12.57
2022-10-28T03:23:34.400Z,12.57
2022-10-28T03:24:37.156Z,12.56
2022-10-28T03:25:38.987Z,12.56
2022-10-28T03:26:41.973Z,12.54
2022-10-28T03:27:43.763Z,12.55
2022-10-28T03:28:46.779Z,12.54
2022-10-28T03:29:48.669Z,12.54
2022-10-28T03:30:51.416Z,12.53
2022-10-28T03:31:53.342Z,12.54
2022-10-28T03:32:56.614Z,12.53
2022-10-28T03:33:58.645Z,12.53
2022-10-28T03:35:03.246Z,12.52
2022-10-28T03:36:06.519Z,12.52
2022-10-28T03:37:08.300Z,12.51
2022-10-28T03:38:11.098Z,12.50
2022-10-28T03:39:13.022Z,12.51
2022-10-28T03:40:16.039Z,12.50
2022-10-28T03:41:17.894Z,12.50
2022-10-28T03:42:20.677Z,12.48
2022-10-28T03:43:22.553Z,12.48
2022-10-28T03:44:25.322Z,12.48
2022-10-28T03:45:27.161Z,12.47
2022-10-28T03:46:32.286Z,12.48
2022-10-28T03:47:37.452Z,12.47
2022-10-28T03:48:40.298Z,12.46
2022-10-28T03:49:42.213Z,12.46
2022-10-28T03:50:46.417Z,12.47
2022-10-28T03:51:49.203Z,12.45
2022-10-28T03:52:51.026Z,12.45
2022-10-28T03:53:53.964Z,12.44
2022-10-28T03:54:55.741Z,12.43
2022-10-28T03:56:00.312Z,12.44
2022-10-28T03:57:03.105Z,12.43
2022-10-28T03:58:05.919Z,12.43
2022-10-28T03:59:09.032Z,12.44
2022-10-28T04:00:12.836Z,12.43
2022-10-28T04:01:15.214Z,12.43
2022-10-28T04:02:18.203Z,12.42
2022-10-28T04:03:22.179Z,12.41
2022-10-28T04:04:28.428Z,12.41
2022-10-28T04:05:32.612Z,12.42
2022-10-28T04:06:36.754Z,12.39
2022-10-28T04:07:38.526Z,12.39
2022-10-28T04:08:41.398Z,12.39
2022-10-28T04:09:43.331Z,12.38
2022-10-28T04:10:47.615Z,12.37
2022-10-28T04:11:49.545Z,12.38
2022-10-28T04:12:52.533Z,12.36
2022-10-28T04:13:54.649Z,12.36
2022-10-28T04:14:57.501Z,12.36
2022-10-28T04:15:59.377Z,12.35
2022-10-28T04:17:02.177Z,12.35
2022-10-28T04:18:04.628Z,12.33
2022-10-28T04:19:07.454Z,12.33
2022-10-28T04:20:09.777Z,12.33
2022-10-28T04:21:12.511Z,12.32
2022-10-28T04:22:16.073Z,12.31
2022-10-28T04:23:19.503Z,12.31
2022-10-28T04:24:21.487Z,12.30
2022-10-28T04:25:25.559Z,12.30
2022-10-28T04:26:27.314Z,12.29
2022-10-28T04:27:30.055Z,12.30
2022-10-28T04:28:32.110Z,12.29
2022-10-28T04:29:35.001Z,12.29
2022-10-28T04:30:37.807Z,12.29
2022-10-28T04:31:39.707Z,12.27
2022-10-28T04:32:44.465Z,12.27
2022-10-28T04:33:46.228Z,12.27
2022-10-28T04:34:49.066Z,12.25
2022-10-28T04:35:50.835Z,12.25
2022-10-28T04:36:53.717Z,12.25
2022-10-28T04:37:57.006Z,12.24
2022-10-28T04:39:00.049Z,12.23
2022-10-28T04:40:03.682Z,12.24
2022-10-28T04:41:06.791Z,12.23
2022-10-28T04:42:08.604Z,12.23
2022-10-28T04:43:11.757Z,12.22
2022-10-28T04:44:13.561Z,12.22
2022-10-28T04:45:16.670Z,12.21
2022-10-28T04:46:18.761Z,12.21
2022-10-28T04:47:21.579Z,12.21
2022-10-28T04:48:23.516Z,12.20
2022-10-28T04:49:26.539Z,12.19
2022-10-28T04:50:28.557Z,12.18
2022-10-28T04:51:31.446Z,12.18
2022-10-28T04:52:33.405Z,12.17
2022-10-28T04:53:37.570Z,12.18
2022-10-28T04:54:39.415Z,12.17
2022-10-28T04:55:43.376Z,12.17
2022-10-28T04:56:45.205Z,12.16
2022-10-28T04:57:54.919Z,12.17
2022-10-28T04:58:56.874Z,12.16
2022-10-28T04:59:59.735Z,12.17
2022-10-28T05:01:05.674Z,12.15
2022-10-28T05:02:08.738Z,12.15
2022-10-28T05:03:10.763Z,12.14
2022-10-28T05:04:13.812Z,12.14
2022-10-28T05:06:19.975Z,12.15
2022-10-28T05:07:23.557Z,12.16
2022-10-28T05:08:26.556Z,12.15
2022-10-28T05:09:29.672Z,12.16
2022-10-28T05:10:32.576Z,12.15
2022-10-28T05:11:34.393Z,12.15
2022-10-28T05:12:37.318Z,12.15
2022-10-28T05:13:40.182Z,12.15
2022-10-28T05:14:42.064Z,12.14
2022-10-28T05:15:44.919Z,12.14
2022-10-28T05:16:48.092Z,12.14
2022-10-28T05:17:51.302Z,12.13
2022-10-28T05:18:53.571Z,12.12
2022-10-28T05:19:56.499Z,12.12
2022-10-28T05:20:58.292Z,12.13
2022-10-28T05:22:01.022Z,12.12
2022-10-28T05:23:02.911Z,12.12
2022-10-28T05:24:06.441Z,12.12
2022-10-28T05:25:09.731Z,12.12
2022-10-28T05:26:12.540Z,12.11
2022-10-28T05:27:15.922Z,12.11
2022-10-28T05:28:19.457Z,12.10
2022-10-28T05:29:21.241Z,12.09
2022-10-28T05:30:24.008Z,12.10
2022-10-28T05:31:25.776Z,12.10
2022-10-28T05:32:28.654Z,12.09
2022-10-28T05:33:31.631Z,12.10
2022-10-28T05:34:33.453Z,12.09
2022-10-28T05:35:36.301Z,12.09
2022-10-28T05:36:38.536Z,12.08
2022-10-28T05:37:41.429Z,12.06
2022-10-28T05:38:45.409Z,12.06
2022-10-28T05:39:48.275Z,12.05
2022-10-28T05:40:51.530Z,12.06
2022-10-28T05:41:54.361Z,12.04
2022-10-28T05:42:56.378Z,12.04
2022-10-28T05:43:59.375Z,12.03
2022-10-28T05:45:02.205Z,12.03
2022-10-28T05:46:05.035Z,12.02
2022-10-28T05:47:06.904Z,12.01
2022-10-28T05:48:09.833Z,12.01
2022-10-28T05:49:11.632Z,12.01
2022-10-28T05:50:15.927Z,12.00
2022-10-28T05:51:18.722Z,12.00
2022-10-28T05:52:20.687Z,12.01
2022-10-28T05:53:23.455Z,12.00
2022-10-28T05:54:25.280Z,12.00
2022-10-28T05:55:29.680Z,12.00
2022-10-28T05:56:32.957Z,11.98
2022-10-28T05:57:36.315Z,11.98
2022-10-28T05:58:39.222Z,11.99
2022-10-28T05:59:41.018Z,11.99
2022-10-28T06:00:43.775Z,11.99
2022-10-28T06:01:45.658Z,11.98
2022-10-28T06:02:48.531Z,11.98
2022-10-28T06:03:51.106Z,11.98
2022-10-28T06:04:54.266Z,12.00
2022-10-28T06:05:58.674Z,11.99
2022-10-28T06:07:00.561Z,11.99
2022-10-28T06:08:06.547Z,12.00
2022-10-28T06:09:08.446Z,12.01
2022-10-28T06:10:12.673Z,12.00
2022-10-28T06:11:12.971Z,11.99
2022-10-28T06:12:17.340Z,11.99
2022-10-28T06:13:20.816Z,11.98
2022-10-28T06:14:22.577Z,11.98
2022-10-28T06:15:25.816Z,11.98
2022-10-28T06:16:27.686Z,11.99
2022-10-28T06:17:30.564Z,12.00
2022-10-28T06:18:33.883Z,12.02
2022-10-28T06:19:35.736Z,12.03
2022-10-28T06:20:38.539Z,12.05
2022-10-28T06:21:40.514Z,12.08
2022-10-28T06:22:47.271Z,12.10
2022-10-28T06:23:49.895Z,12.13
2022-10-28T06:24:52.687Z,12.13
2022-10-28T06:27:04.120Z,12.16
2022-10-28T06:28:10.359Z,12.16
2022-10-28T06:29:13.549Z,12.17
2022-10-28T06:30:15.443Z,12.17
2022-10-28T06:31:18.239Z,12.21
2022-10-28T06:32:20.133Z,12.25
2022-10-28T06:33:23.050Z,12.26
2022-10-28T06:34:24.839Z,12.30
2022-10-28T06:35:27.642Z,12.31
2022-10-28T06:36:30.628Z,12.31
2022-10-28T06:37:32.550Z,12.29
2022-10-28T06:38:35.412Z,12.28
2022-10-28T06:39:38.284Z,12.26
2022-10-28T06:40:41.138Z,12.24
2022-10-28T06:41:43.069Z,12.23
2022-10-28T06:42:45.907Z,12.20
2022-10-28T06:43:49.173Z,12.19
2022-10-28T06:44:53.116Z,12.17
2022-10-28T06:45:55.932Z,12.17
2022-10-28T06:47:00.238Z,12.15
2022-10-28T06:48:05.722Z,12.16
2022-10-28T06:49:09.148Z,12.15
2022-10-28T06:50:11.089Z,12.14
2022-10-28T06:51:13.898Z,12.15
2022-10-28T06:52:16.989Z,12.15
2022-10-28T06:53:19.809Z,12.17
2022-10-28T06:54:22.557Z,12.18
2022-10-28T06:55:25.844Z,12.21
2022-10-28T06:56:28.697Z,12.24
2022-10-28T06:57:31.410Z,12.26
2022-10-28T06:58:34.229Z,12.27
2022-10-28T06:59:37.429Z,12.29
2022-10-28T07:00:40.327Z,12.29
2022-10-28T07:01:42.307Z,12.31
2022-10-28T07:02:45.565Z,12.30
2022-10-28T07:03:49.137Z,12.31
2022-10-28T07:04:50.933Z,12.31
2022-10-28T07:05:53.776Z,12.31
2022-10-28T07:06:56.046Z,12.32
2022-10-28T07:07:58.878Z,12.32
2022-10-28T07:09:02.249Z,12.32
2022-10-28T07:10:05.939Z,12.33
2022-10-28T07:11:10.324Z,12.33
2022-10-28T07:12:13.220Z,12.34
2022-10-28T07:13:15.112Z,12.35
2022-10-28T07:14:18.121Z,12.38
2022-10-28T07:15:21.564Z,12.41
2022-10-28T07:16:25.605Z,12.45
2022-10-28T07:17:27.495Z,12.50
2022-10-28T07:18:31.178Z,12.55
2022-10-28T07:19:33.362Z,12.60
2022-10-28T07:20:36.199Z,12.65
2022-10-28T07:21:38.141Z,12.70
2022-10-28T07:22:41.007Z,12.74
2022-10-28T07:23:43.911Z,12.78
2022-10-28T07:24:46.874Z,12.80
2022-10-28T07:27:02.220Z,12.86
2022-10-28T07:28:04.554Z,12.92
2022-10-28T07:29:07.485Z,12.96
2022-10-28T07:30:10.957Z,13.01
2022-10-28T07:31:15.428Z,13.06
2022-10-28T07:32:17.565Z,13.09
2022-10-28T07:33:20.697Z,13.12
2022-10-28T07:34:26.825Z,13.15
2022-10-28T07:35:31.751Z,13.19
2022-10-28T07:36:34.764Z,13.23
2022-10-28T07:37:38.333Z,13.27
2022-10-28T07:38:41.264Z,13.31
2022-10-28T07:39:44.412Z,13.34
2022-10-28T07:40:47.568Z,13.38
2022-10-28T07:41:50.424Z,13.41
2022-10-28T07:42:52.555Z,13.43
2022-10-28T07:43:56.136Z,13.46
2022-10-28T07:44:58.024Z,13.48
2022-10-28T07:46:02.284Z,13.49
2022-10-28T07:47:05.640Z,13.50
2022-10-28T07:48:08.785Z,13.52
2022-10-28T07:49:10.793Z,13.52
2022-10-28T07:50:14.096Z,13.51
2022-10-28T07:51:17.309Z,13.52
2022-10-28T07:52:20.375Z,13.52
2022-10-28T07:53:24.843Z,13.54
2022-10-28T07:54:31.934Z,13.53
2022-10-28T07:55:34.865Z,13.54
2022-10-28T07:56:36.707Z,13.55
2022-10-28T07:57:39.967Z,13.56
2022-10-28T07:58:43.310Z,13.59
2022-10-28T07:59:46.320Z,13.60
2022-10-28T08:00:49.279Z,13.62
2022-10-28T08:01:52.309Z,13.61
2022-10-28T08:02:55.598Z,13.61
2022-10-28T08:03:58.634Z,13.59
2022-10-28T08:05:02.279Z,13.58
2022-10-28T08:06:07.844Z,13.56
2022-10-28T08:07:10.837Z,13.56
2022-10-28T08:08:13.413Z,13.54
2022-10-28T08:09:17.341Z,13.52
2022-10-28T08:10:19.377Z,13.51
2022-10-28T08:11:23.863Z,13.50
2022-10-28T08:12:28.260Z,13.50
2022-10-28T08:13:34.927Z,13.50
2022-10-28T08:14:39.663Z,13.51
2022-10-28T08:15:41.572Z,13.51
2022-10-28T08:16:44.682Z,13.51
2022-10-28T08:17:52.750Z,13.52
2022-10-28T08:18:56.921Z,13.52
2022-10-28T08:19:59.878Z,13.52
2022-10-28T08:21:04.143Z,13.51
2022-10-28T08:22:08.373Z,13.51
2022-10-28T08:23:10.389Z,13.52
2022-10-28T08:24:13.502Z,13.52
2022-10-28T08:25:15.621Z,13.53
2022-10-28T08:26:18.556Z,13.53
2022-10-28T08:27:20.758Z,13.54
2022-10-28T08:28:24.041Z,13.55
2022-10-28T08:29:29.048Z,13.56
2022-10-28T08:30:40.335Z,13.56
2022-10-28T08:31:53.474Z,13.57
2022-10-28T08:32:56.049Z,13.57
2022-10-28T08:34:00.912Z,13.58
2022-10-28T08:35:04.510Z,13.57
2022-10-28T08:36:08.280Z,13.57
2022-10-28T08:37:11.349Z,13.59
2022-10-28T08:38:14.337Z,13.59
2022-10-28T08:39:17.382Z,13.60
2022-10-28T08:40:26.848Z,13.59
2022-10-28T08:41:37.178Z,13.61
2022-10-28T08:42:47.406Z,13.62
2022-10-28T08:44:06.196Z,13.63
2022-10-28T08:45:24.406Z,13.65
2022-10-28T08:46:42.425Z,13.64
2022-10-28T08:47:54.514Z,13.65
2022-10-28T08:48:57.973Z,13.64
2022-10-28T08:50:11.800Z,13.66
2022-10-28T08:51:18.605Z,13.65
2022-10-28T08:52:28.542Z,13.66
2022-10-28T08:53:35.823Z,13.66
2022-10-28T08:54:47.257Z,13.64
2022-10-28T08:55:52.447Z,13.66
2022-10-28T08:56:56.174Z,13.67
2022-10-28T08:58:04.011Z,13.68
2022-10-28T08:59:13.154Z,13.69
2022-10-28T09:00:22.971Z,13.71
2022-10-28T09:01:36.473Z,13.73
2022-10-28T09:02:51.023Z,13.75
2022-10-28T09:03:54.668Z,13.76
2022-10-28T09:05:03.404Z,13.78
2022-10-28T09:06:10.250Z,13.79
2022-10-28T09:07:16.985Z,13.80
2022-10-28T09:08:23.927Z,13.82
2022-10-28T09:09:26.900Z,13.83
2022-10-28T09:11:07.821Z,13.88
2022-10-28T09:12:26.149Z,13.92
2022-10-28T09:13:42.326Z,13.93
2022-10-28T09:15:02.289Z,13.97
2022-10-28T09:16:15.294Z,13.97
2022-10-28T09:17:21.083Z,13.98
2022-10-28T09:18:36.653Z,13.97
2022-10-28T09:19:47.464Z,13.99
2022-10-28T09:20:53.809Z,13.99
2022-10-28T09:22:11.140Z,14.00
2022-10-28T09:23:21.976Z,14.01
2022-10-28T09:24:29.827Z,14.02
2022-10-28T09:25:42.646Z,14.04
2022-10-28T09:26:54.211Z,14.05
2022-10-28T09:28:19.225Z,14.10
2022-10-28T09:29:39.203Z,14.12
2022-10-28T09:30:53.162Z,14.15
2022-10-28T09:32:02.444Z,14.18
2022-10-28T09:33:18.004Z,14.21
2022-10-28T09:34:30.347Z,14.24
2022-10-28T09:35:37.693Z,14.27
2022-10-28T09:36:44.676Z,14.30
2022-10-28T09:37:53.657Z,14.31
2022-10-28T09:38:58.708Z,14.35
2022-10-28T09:40:07.148Z,14.37
2022-10-28T09:41:15.246Z,14.39
2022-10-28T09:42:25.098Z,14.43
2022-10-28T09:43:30.948Z,14.46
2022-10-28T09:44:41.726Z,14.50
2022-10-28T09:45:47.515Z,14.53
2022-10-28T09:46:53.578Z,14.55
2022-10-28T09:47:59.545Z,14.55
2022-10-28T09:49:06.010Z,14.57
2022-10-28T09:50:16.983Z,14.60
2022-10-28T09:51:29.819Z,14.61
2022-10-28T09:52:40.156Z,14.64
2022-10-28T09:53:48.173Z,14.67
2022-10-28T09:54:53.242Z,14.71
2022-10-28T09:55:55.821Z,14.72
2022-10-28T09:56:58.739Z,14.74
2022-10-28T09:58:03.519Z,14.78
2022-10-28T09:59:06.353Z,14.80
2022-10-28T10:00:13.846Z,14.80
2022-10-28T10:01:19.065Z,14.83
2022-10-28T10:02:29.427Z,14.86
2022-10-28T10:03:31.733Z,14.88
2022-10-28T10:04:35.696Z,14.92
2022-10-28T10:05:41.382Z,14.95
2022-10-28T10:06:45.179Z,14.98
2022-10-28T10:07:52.216Z,15.03
2022-10-28T10:08:57.249Z,15.10
2022-10-28T10:10:06.267Z,15.13
2022-10-28T10:11:18.489Z,15.14
2022-10-28T10:12:20.857Z,15.16
2022-10-28T10:13:28.400Z,15.16
2022-10-28T10:14:36.884Z,15.18
2022-10-28T10:15:44.574Z,15.28
2022-10-28T10:16:50.845Z,15.29
2022-10-28T10:17:54.364Z,15.31
2022-10-28T10:19:02.186Z,15.31
2022-10-28T10:20:08.745Z,15.29
2022-10-28T10:21:11.523Z,15.28
2022-10-28T10:22:29.552Z,15.25
2022-10-28T10:23:34.163Z,15.24
2022-10-28T10:24:37.606Z,15.24
2022-10-28T10:25:40.582Z,15.22
2022-10-28T10:26:43.413Z,15.23
2022-10-28T10:27:52.292Z,15.25
2022-10-28T10:28:55.469Z,15.28
2022-10-28T10:29:58.844Z,15.31
2022-10-28T10:31:04.314Z,15.32
2022-10-28T10:32:15.894Z,15.37
2022-10-28T10:33:22.816Z,15.38
2022-10-28T10:34:30.100Z,15.38
2022-10-28T10:35:35.274Z,15.40
2022-10-28T10:36:38.064Z,15.43
2022-10-28T10:37:45.038Z,15.45
2022-10-28T10:38:48.896Z,15.47
2022-10-28T10:40:06.962Z,15.46
2022-10-28T10:41:09.789Z,15.46
2022-10-28T10:42:22.474Z,15.47
2022-10-28T10:43:31.842Z,15.46
2022-10-28T10:44:35.725Z,15.45
2022-10-28T10:45:39.529Z,15.46
2022-10-28T10:46:41.390Z,15.47
2022-10-28T10:47:44.387Z,15.49
2022-10-28T10:48:47.464Z,15.49
2022-10-28T10:49:49.833Z,15.49
2022-10-28T10:50:53.720Z,15.51
2022-10-28T10:51:57.650Z,15.53
2022-10-28T10:53:03.393Z,15.54
2022-10-28T10:54:06.351Z,15.55
2022-10-28T10:55:22.156Z,15.58
2022-10-28T10:56:27.483Z,15.59
2022-10-28T10:57:29.857Z,15.63
2022-10-28T10:58:35.827Z,15.64
2022-10-28T10:59:38.159Z,15.66
2022-10-28T11:00:50.961Z,15.69
2022-10-28T11:01:55.382Z,15.70
2022-10-28T11:02:58.672Z,15.71
2022-10-28T11:04:03.914Z,15.71
2022-10-28T11:05:09.799Z,15.72
2022-10-28T11:06:23.895Z,15.72
2022-10-28T11:07:28.289Z,15.73
2022-10-28T11:08:38.162Z,15.72
2022-10-28T11:09:43.172Z,15.72
2022-10-28T11:11:03.884Z,15.75
2022-10-28T11:12:16.094Z,15.75
2022-10-28T11:13:27.087Z,15.76
2022-10-28T11:14:32.283Z,15.78
2022-10-28T11:15:35.269Z,15.80
2022-10-28T11:16:56.749Z,15.82
2022-10-28T11:18:01.031Z,15.84
2022-10-28T11:19:20.453Z,15.86
2022-10-28T11:20:26.082Z,15.88
2022-10-28T11:21:43.267Z,15.89
2022-10-28T11:22:55.094Z,15.93
2022-10-28T11:24:12.024Z,16.00
2022-10-28T11:25:33.325Z,16.06
2022-10-28T11:26:45.217Z,16.09
2022-10-28T11:28:01.676Z,16.14
2022-10-28T11:29:11.086Z,16.20
2022-10-28T11:30:17.100Z,16.28
2022-10-28T11:31:39.704Z,16.30
2022-10-28T11:33:02.249Z,16.30
2022-10-28T11:34:24.364Z,16.29
2022-10-28T11:35:38.171Z,16.29
2022-10-28T11:36:51.471Z,16.27
2022-10-28T11:38:09.626Z,16.26
2022-10-28T11:39:34.723Z,16.28
2022-10-28T11:40:48.313Z,16.33
2022-10-28T11:42:09.089Z,16.41
2022-10-28T11:43:23.177Z,16.46
2022-10-28T11:44:41.024Z,16.50
2022-10-28T11:45:51.320Z,16.51
2022-10-28T11:47:05.255Z,16.53
2022-10-28T11:48:22.112Z,16.52
2022-10-28T11:50:03.511Z,16.57
2022-10-28T11:51:18.029Z,16.63
2022-10-28T11:52:32.830Z,16.66
2022-10-28T11:53:56.465Z,16.66
2022-10-28T11:55:14.462Z,16.65
2022-10-28T11:56:27.508Z,16.64
2022-10-28T11:57:46.720Z,16.68
2022-10-28T11:58:57.629Z,16.73
2022-10-28T12:00:16.119Z,16.73
2022-10-28T12:01:37.483Z,16.73
2022-10-28T12:02:56.920Z,16.74
2022-10-28T12:04:23.235Z,16.77
2022-10-28T12:05:31.481Z,16.79
2022-10-28T12:06:58.640Z,16.82
2022-10-28T12:08:22.263Z,16.86
2022-10-28T12:09:33.534Z,16.87
2022-10-28T12:10:46.838Z,16.88
2022-10-28T12:12:06.141Z,16.93
2022-10-28T12:13:18.974Z,16.97
2022-10-28T12:14:30.044Z,16.99
2022-10-28T12:15:37.070Z,16.99
2022-10-28T12:16:48.173Z,16.98
2022-10-28T12:17:59.036Z,16.95
2022-10-28T12:19:06.662Z,16.93
2022-10-28T12:20:15.833Z,16.92
2022-10-28T12:21:29.248Z,16.90
2022-10-28T12:22:38.041Z,16.91
2022-10-28T12:23:43.283Z,16.89
2022-10-28T12:24:46.809Z,16.89
2022-10-28T12:25:52.599Z,16.88
2022-10-28T12:26:58.510Z,16.88
2022-10-28T12:28:04.536Z,16.91
2022-10-28T12:29:15.817Z,16.94
2022-10-28T12:30:22.992Z,16.96
2022-10-28T12:31:29.193Z,16.99
2022-10-28T12:32:35.411Z,17.04
2022-10-28T12:33:43.886Z,17.11
2022-10-28T12:34:50.225Z,17.13
2022-10-28T12:35:59.560Z,17.13
2022-10-28T12:37:07.317Z,17.13
2022-10-28T12:38:16.298Z,17.13
2022-10-28T12:39:21.388Z,17.14
2022-10-28T12:40:27.998Z,17.14
2022-10-28T12:41:48.022Z,17.18
2022-10-28T12:42:56.492Z,17.19
2022-10-28T12:44:03.928Z,17.20
2022-10-28T12:45:14.933Z,17.19
2022-10-28T12:46:24.601Z,17.14
2022-10-28T12:47:32.229Z,17.10
2022-10-28T12:48:41.670Z,17.04
2022-10-28T12:49:55.714Z,16.99
2022-10-28T12:51:04.544Z,16.95
2022-10-28T12:52:16.591Z,16.92
2022-10-28T12:53:35.410Z,16.89
2022-10-28T12:54:52.671Z,16.86
2022-10-28T12:56:00.484Z,16.82
2022-10-28T12:57:09.819Z,16.79
2022-10-28T12:58:18.625Z,16.77
2022-10-28T12:59:29.171Z,16.73
2022-10-28T13:00:37.290Z,16.68
2022-10-28T13:01:41.080Z,16.66
2022-10-28T13:02:48.961Z,16.64
2022-10-28T13:03:52.603Z,16.61
2022-10-28T13:04:54.970Z,16.59
2022-10-28T13:06:23.003Z,16.57
2022-10-28T13:07:42.027Z,16.55
2022-10-28T13:10:18.830Z,16.50
2022-10-28T13:11:39.639Z,16.48
2022-10-28T13:13:02.133Z,16.48
2022-10-28T13:14:12.355Z,16.46
2022-10-28T13:15:26.689Z,16.44
2022-10-28T13:17:02.180Z,16.43
2022-10-28T13:18:26.922Z,16.43
2022-10-28T13:20:00.025Z,16.41
2022-10-28T13:21:14.701Z,16.41
2022-10-28T13:22:31.512Z,16.43
2022-10-28T13:23:41.839Z,16.43
2022-10-28T13:24:54.284Z,16.44
2022-10-28T13:26:08.851Z,16.44
2022-10-28T13:27:13.327Z,16.44
2022-10-28T13:28:21.040Z,16.43
2022-10-28T13:29:27.060Z,16.43
2022-10-28T13:30:31.934Z,16.43
2022-10-28T13:31:40.772Z,16.43
2022-10-28T13:32:44.601Z,16.44
2022-10-28T13:33:52.282Z,16.45
2022-10-28T13:34:54.321Z,16.45
2022-10-28T13:36:12.852Z,16.45
2022-10-28T13:37:20.348Z,16.46
2022-10-28T13:38:25.946Z,16.45
2022-10-28T13:39:43.143Z,16.45
2022-10-28T13:41:27.952Z,16.45
2022-10-28T13:42:55.805Z,16.45
2022-10-28T13:44:23.099Z,16.45
2022-10-28T13:45:48.343Z,16.47
2022-10-28T13:47:26.218Z,16.46
2022-10-28T13:48:49.229Z,16.45
2022-10-28T13:50:35.344Z,16.43
2022-10-28T13:51:47.115Z,16.41
2022-10-28T13:53:36.197Z,16.41
2022-10-28T13:54:54.722Z,16.40
2022-10-28T13:55:57.810Z,16.40
2022-10-28T13:57:08.475Z,16.40
2022-10-28T13:58:22.126Z,16.42
2022-10-28T13:59:41.225Z,16.41
2022-10-28T14:00:43.178Z,16.41
2022-10-28T14:02:01.257Z,16.42
2022-10-28T14:03:19.701Z,16.41
2022-10-28T14:04:26.544Z,16.42
2022-10-28T14:05:54.867Z,16.42
2022-10-28T14:07:16.205Z,16.43
2022-10-28T14:08:22.776Z,16.43
2022-10-28T14:09:30.059Z,16.44
2022-10-28T14:10:34.203Z,16.43
2022-10-28T14:11:36.156Z,16.43
2022-10-28T14:12:43.697Z,16.43
2022-10-28T14:13:49.496Z,16.44
2022-10-28T14:15:00.787Z,16.44
2022-10-28T14:16:23.444Z,16.43
2022-10-28T14:17:29.751Z,16.44
2022-10-28T14:18:48.187Z,16.43
2022-10-28T14:19:53.428Z,16.42
2022-10-28T14:21:02.308Z,16.44
2022-10-28T14:22:07.580Z,16.44
2022-10-28T14:23:52.301Z,16.44
2022-10-28T14:24:55.252Z,16.43
2022-10-28T14:26:04.461Z,16.43
2022-10-28T14:27:28.037Z,16.44
2022-10-28T14:28:56.764Z,16.45
2022-10-28T14:30:23.010Z,16.47
2022-10-28T14:31:45.152Z,16.47